Terminal Aerodrome Forecast
Issued by NWS Northern Indiana

Home | Current Version | Previous Version | Text Only | Print | Product List | Glossary On
Versions: 1 2 3 4 5 6 7 8 9 10 11 12 13 14 15
000
FTUS43 KIWX 281700
TAFFWA
TAF
KFWA 281721Z 2818/2918 36004KT P6SM FEW050 SCT250
     FM290900 00000KT 3SM BR SKC
     FM291400 30004KT P6SM SKC=

USA.gov is the U.S. government's official web portal to all federal, state and local government web resources and services.